Time;durP1;ratioP1;P1;durP2;ratioP2;P2;SDS_P1;SDS_P2;PMS_P1;PMS_P2;Temp;Humidity;BMP_temperature;BMP_pressure;BME280_temperature;BME280_humidity;BME280_pressure;Samples;Min_cycle;Max_cycle;Signal;HPM_P1;HPM_P2
2022/06/19 00:00:49;;;;;;;12.3;18.1;;;;;;;16.9;100;98660;;;;
2022/06/19 00:10:49;;;;;;;12.3;18.1;;;;;;;16.5;100;98650;;;;
2022/06/19 00:20:49;;;;;;;12.3;18.1;;;;;;;16.5;100;98660;;;;
2022/06/19 00:30:49;;;;;;;5;7.6;;;;;;;16.4;100;98660;;;;
2022/06/19 00:41:49;;;;;;;5;7.6;;;;;;;16.3;100;98650;;;;
2022/06/19 00:51:49;;;;;;;5;7.6;;;;;;;16.6;100;98630;;;;
2022/06/19 01:01:49;;;;;;;3;5.4;;;;;;;17;100;98630;;;;
2022/06/19 01:11:49;;;;;;;3;5.4;;;;;;;17;100;98630;;;;
2022/06/19 01:21:49;;;;;;;3;5.4;;;;;;;17.6;100;98620;;;;
2022/06/19 01:31:49;;;;;;;2.7;6.9;;;;;;;17.9;100;98600;;;;
2022/06/19 01:42:49;;;;;;;2.7;6.9;;;;;;;17.9;100;98600;;;;
2022/06/19 01:52:49;;;;;;;2.7;6.9;;;;;;;17.3;100;98590;;;;
2022/06/19 02:03:49;;;;;;;4.8;7.4;;;;;;;16.7;100;98590;;;;
2022/06/19 02:13:49;;;;;;;4.8;7.4;;;;;;;16.4;100;98580;;;;
2022/06/19 02:23:49;;;;;;;4.8;7.4;;;;;;;16.1;100;98570;;;;
2022/06/19 02:34:50;;;;;;;7;12.1;;;;;;;15.8;100;98570;;;;
2022/06/19 02:44:49;;;;;;;7;12.1;;;;;;;15.6;100;98570;;;;
2022/06/19 02:55:49;;;;;;;7;12.1;;;;;;;15.4;100;98580;;;;
2022/06/19 03:05:49;;;;;;;6.4;11;;;;;;;15.4;100;98590;;;;
2022/06/19 03:16:49;;;;;;;6.4;11;;;;;;;15.5;100;98590;;;;
2022/06/19 03:27:49;;;;;;;5.3;8.3;;;;;;;15.7;100;98590;;;;
2022/06/19 03:37:49;;;;;;;5.3;8.3;;;;;;;15.9;100;98600;;;;
2022/06/19 03:48:49;;;;;;;5.3;8.3;;;;;;;16.2;100;98590;;;;
2022/06/19 03:59:49;;;;;;;5.5;9.2;;;;;;;16.6;100;98590;;;;
2022/06/19 04:09:49;;;;;;;5.5;9.2;;;;;;;17;100;98580;;;;
2022/06/19 04:20:49;;;;;;;5.5;9.2;;;;;;;17.6;100;98590;;;;
2022/06/19 04:30:49;;;;;;;4.6;7.1;;;;;;;18.2;100;98590;;;;
2022/06/19 04:41:49;;;;;;;4.6;7.1;;;;;;;19;100;98580;;;;
2022/06/19 04:51:49;;;;;;;4.6;7.1;;;;;;;19.6;100;98580;;;;
2022/06/19 05:02:49;;;;;;;4;7;;;;;;;20.2;100;98570;;;;
2022/06/19 05:12:50;;;;;;;4;7;;;;;;;20.6;100;98570;;;;
2022/06/19 05:23:49;;;;;;;4;7;;;;;;;20.8;100;98570;;;;
2022/06/19 05:33:49;;;;;;;3.7;7.4;;;;;;;21.5;100;98550;;;;
2022/06/19 05:44:49;;;;;;;3.7;7.4;;;;;;;22.3;100;98560;;;;
2022/06/19 05:54:49;;;;;;;3.7;7.4;;;;;;;22.7;100;98560;;;;
2022/06/19 06:05:49;;;;;;;2.1;4.3;;;;;;;23.1;100;98550;;;;
2022/06/19 06:16:49;;;;;;;2.1;4.3;;;;;;;23.4;100;98530;;;;
2022/06/19 06:26:49;;;;;;;2.1;4.3;;;;;;;23.6;100;98530;;;;
2022/06/19 06:37:49;;;;;;;1.9;4.3;;;;;;;23.8;99.9;98530;;;;
2022/06/19 06:47:49;;;;;;;1.9;4.3;;;;;;;24.2;96.2;98520;;;;
2022/06/19 06:57:49;;;;;;;1.8;3.5;;;;;;;24.1;95.6;98510;;;;
2022/06/19 07:08:49;;;;;;;1.8;3.5;;;;;;;24.7;99.3;98500;;;;
2022/06/19 07:19:49;;;;;;;1.8;3.5;;;;;;;25.1;94.2;98490;;;;
2022/06/19 07:29:49;;;;;;;2.3;8.7;;;;;;;25.1;94.6;98480;;;;
2022/06/19 07:39:49;;;;;;;2.3;8.7;;;;;;;25.7;92.3;98490;;;;
2022/06/19 07:50:49;;;;;;;2.3;8.7;;;;;;;26.3;89.3;98490;;;;
2022/06/19 08:01:49;;;;;;;1.8;6.2;;;;;;;26.4;84.8;98480;;;;
2022/06/19 08:11:49;;;;;;;1.8;6.2;;;;;;;26.7;83.9;98480;;;;
2022/06/19 08:22:49;;;;;;;1.8;6.2;;;;;;;27.3;82.1;98480;;;;
2022/06/19 08:32:49;;;;;;;1.8;5.4;;;;;;;27.4;82.9;98470;;;;
2022/06/19 08:42:49;;;;;;;1.8;5.4;;;;;;;27.8;79.8;98470;;;;
2022/06/19 08:53:49;;;;;;;1.8;5.4;;;;;;;28;75.3;98460;;;;
2022/06/19 09:05:55;;;;;;;2.4;8;;;;;;;27.9;77.1;98450;;;;
2022/06/19 09:15:49;;;;;;;2.4;8;;;;;;;28.1;78;98470;;;;
2022/06/19 09:25:49;;;;;;;2.4;8;;;;;;;28.5;68.9;98460;;;;
2022/06/19 09:36:49;;;;;;;1.9;4;;;;;;;29;70.5;98450;;;;
2022/06/19 09:46:49;;;;;;;1.9;4;;;;;;;29;67.9;98430;;;;
2022/06/19 09:57:49;;;;;;;2.5;7;;;;;;;29.1;72.7;98420;;;;
2022/06/19 10:08:49;;;;;;;2.5;7;;;;;;;29.5;68.5;98400;;;;
2022/06/19 10:19:49;;;;;;;2.5;7;;;;;;;30.1;68.6;98390;;;;
2022/06/19 10:30:49;;;;;;;2;4.4;;;;;;;29.8;68.4;98380;;;;
2022/06/19 10:40:49;;;;;;;2;4.4;;;;;;;30.1;67.1;98370;;;;
2022/06/19 10:51:49;;;;;;;2;4.4;;;;;;;30.1;60;98360;;;;
2022/06/19 11:12:49;;;;;;;2;7.3;;;;;;;30.6;62.9;98340;;;;
2022/06/19 11:22:50;;;;;;;2;7.3;;;;;;;30.5;60.1;98330;;;;
2022/06/19 11:33:49;;;;;;;1.8;6.9;;;;;;;30.5;59.4;98320;;;;
2022/06/19 11:43:50;;;;;;;1.8;6.9;;;;;;;31.1;62.9;98310;;;;
2022/06/19 11:53:49;;;;;;;1.8;6.9;;;;;;;31.1;61.6;98320;;;;
2022/06/19 12:03:49;;;;;;;2.5;7.3;;;;;;;31.2;60.8;98300;;;;
2022/06/19 12:14:49;;;;;;;2.5;7.3;;;;;;;31.5;61.2;98290;;;;
2022/06/19 12:24:49;;;;;;;2.5;7.3;;;;;;;31.6;59.9;98270;;;;
2022/06/19 12:35:49;;;;;;;2.4;6.8;;;;;;;32;52.9;98250;;;;
2022/06/19 12:46:49;;;;;;;2.4;6.8;;;;;;;32.1;56.6;98250;;;;
2022/06/19 12:57:49;;;;;;;2.4;6.8;;;;;;;32.2;52.9;98230;;;;
2022/06/19 13:08:49;;;;;;;2.3;5;;;;;;;32.3;50.8;98220;;;;
2022/06/19 13:18:49;;;;;;;2.3;5;;;;;;;32.3;48;98210;;;;
2022/06/19 13:28:50;;;;;;;2.4;9.7;;;;;;;32.6;46.6;98200;;;;
2022/06/19 13:38:49;;;;;;;2.4;9.7;;;;;;;32.7;47.4;98180;;;;
2022/06/19 13:48:49;;;;;;;2.4;9.7;;;;;;;32.8;49;98170;;;;
2022/06/19 13:58:49;;;;;;;2.4;7.1;;;;;;;32.7;47.2;98160;;;;
2022/06/19 14:09:50;;;;;;;2.4;7.1;;;;;;;33.2;51.5;98140;;;;
2022/06/19 14:19:49;;;;;;;2.4;7.1;;;;;;;33.2;47.1;98130;;;;
2022/06/19 14:30:50;;;;;;;2.7;9.9;;;;;;;33.3;49.3;98110;;;;
2022/06/19 14:41:49;;;;;;;2.7;9.9;;;;;;;33.6;48.3;98090;;;;
2022/06/19 14:51:49;;;;;;;2.7;9.9;;;;;;;33.5;47.3;98090;;;;
2022/06/19 15:02:51;;;;;;;2.4;6.3;;;;;;;35.6;44.8;98090;;;;
2022/06/19 15:12:50;;;;;;;2.4;6.3;;;;;;;37.1;41.1;98060;;;;
2022/06/19 15:23:50;;;;;;;2.4;6.3;;;;;;;39.6;37.9;98070;;;;
2022/06/19 15:33:50;;;;;;;2.6;7.8;;;;;;;39.6;38;98050;;;;
2022/06/19 15:44:50;;;;;;;2.6;7.8;;;;;;;41.1;37;98040;;;;
2022/06/19 15:55:50;;;;;;;2.6;7.8;;;;;;;41;34.7;98020;;;;
2022/06/19 16:06:50;;;;;;;2.8;8.7;;;;;;;39.6;36.3;98010;;;;
2022/06/19 16:17:50;;;;;;;2.8;8.7;;;;;;;39.5;36.7;98010;;;;
2022/06/19 16:28:50;;;;;;;2.3;7.2;;;;;;;39.5;35.9;98020;;;;
2022/06/19 16:49:49;;;;;;;2.3;7.2;;;;;;;38.7;36.7;97990;;;;
2022/06/19 16:59:50;;;;;;;2.5;6.9;;;;;;;38.1;36.6;97980;;;;
2022/06/19 17:10:51;;;;;;;2.5;6.9;;;;;;;35.7;39.3;97960;;;;
2022/06/19 17:20:50;;;;;;;2.5;6.9;;;;;;;34.1;42.7;97970;;;;
2022/06/19 17:31:50;;;;;;;2;8.5;;;;;;;35.6;42.8;97970;;;;
2022/06/19 17:41:50;;;;;;;2;8.5;;;;;;;37.4;39.9;97980;;;;
2022/06/19 17:51:50;;;;;;;2;8.5;;;;;;;35.2;41.2;97980;;;;
2022/06/19 18:01:52;;;;;;;2.6;9.3;;;;;;;34.3;43.4;97980;;;;
2022/06/19 18:11:50;;;;;;;2.6;9.3;;;;;;;31;49.1;97970;;;;
2022/06/19 18:22:50;;;;;;;2.6;9.3;;;;;;;29.2;53.1;97960;;;;
2022/06/19 18:32:50;;;;;;;3.1;7.6;;;;;;;28.5;52.7;97960;;;;
2022/06/19 18:43:50;;;;;;;3.1;7.6;;;;;;;27.2;61.6;97960;;;;
2022/06/19 18:53:51;;;;;;;3.1;7.6;;;;;;;26.2;62.8;97950;;;;
2022/06/19 19:04:50;;;;;;;2.6;7.3;;;;;;;25.4;65.9;97960;;;;
2022/06/19 19:14:50;;;;;;;2.6;7.3;;;;;;;24.7;70;97950;;;;
2022/06/19 19:25:50;;;;;;;2.6;7.3;;;;;;;24.2;73.9;97950;;;;
2022/06/19 19:35:50;;;;;;;3.3;8.3;;;;;;;23.9;72;97950;;;;
2022/06/19 19:45:50;;;;;;;3.3;8.3;;;;;;;23.5;75.6;97960;;;;
2022/06/19 19:55:50;;;;;;;3.3;8.3;;;;;;;23.2;77.5;97950;;;;
2022/06/19 20:16:50;;;;;;;3.6;8.7;;;;;;;22.8;78.8;97960;;;;
2022/06/19 20:26:50;;;;;;;3.6;8.7;;;;;;;22.6;80.2;97960;;;;
2022/06/19 20:37:50;;;;;;;5.7;9.6;;;;;;;22;80.2;97950;;;;
2022/06/19 20:47:50;;;;;;;5.7;9.6;;;;;;;21.7;86.1;97960;;;;
2022/06/19 20:57:50;;;;;;;5.7;9.6;;;;;;;21.5;85.5;97960;;;;
2022/06/19 21:07:50;;;;;;;4.3;7.7;;;;;;;21.2;87.8;97980;;;;
2022/06/19 21:18:50;;;;;;;4.3;7.7;;;;;;;20.8;89;97970;;;;
2022/06/19 21:28:50;;;;;;;4.3;7.7;;;;;;;20.9;89.7;97980;;;;
2022/06/19 21:38:50;;;;;;;3.5;9.4;;;;;;;20.7;90.1;97980;;;;
2022/06/19 21:48:50;;;;;;;3.5;9.4;;;;;;;20.4;93.2;97980;;;;
2022/06/19 21:58:50;;;;;;;3.5;9.4;;;;;;;20.3;92.8;97980;;;;
2022/06/19 22:19:51;;;;;;;3.2;8.2;;;;;;;20.1;92.8;97970;;;;
2022/06/19 22:30:50;;;;;;;3.1;6.5;;;;;;;19.7;96.4;97950;;;;
2022/06/19 22:40:50;;;;;;;3.1;6.5;;;;;;;19.8;97.4;97950;;;;
2022/06/19 22:51:50;;;;;;;3.1;6.5;;;;;;;20;89.2;97960;;;;
2022/06/19 23:01:51;;;;;;;2.5;6.1;;;;;;;19.8;90.2;97960;;;;
2022/06/19 23:12:50;;;;;;;2.5;6.1;;;;;;;19.4;98.9;97970;;;;
2022/06/19 23:22:50;;;;;;;2.5;6.1;;;;;;;18.8;100;97970;;;;
2022/06/19 23:32:50;;;;;;;3.2;7.3;;;;;;;18.4;100;97960;;;;
2022/06/19 23:42:50;;;;;;;3.2;7.3;;;;;;;18.1;100;97930;;;;
2022/06/19 23:53:50;;;;;;;3.2;7.3;;;;;;;18;100;97930;;;;
